LTBU Airport Information

Runway Information
Runway 05 Length 9844 ft width 148 ft
Elevation 500 ft Threshold 0 ft Heading 49
Runway 23 Length 9844 ft Width 148 ft
Elevation 574 ft Threshold 0 ft Heading 229
Airport Frequencies
Type APP Name YESILKOY A Frequency 120.5 MHZ
Type GND Name GND Frequency 121.9 MHZ
Type TWR Name TWR Frequency 120.375 MHZ
Airport Navaids
Type TACAN Name Corlu Frequency 115900 KHZ
Type VOR-DME Name Corlu Frequency 114800 KHZ
Type NDB Name Corlu Frequency 426 KHZ
Airport Weather Information & NOTAM
ADDS - METARS form results

(2036 UTC 18 July 2019)
Data provider http://aviationweather.gov/metar/data/
 
METAR text: LTBU 182020Z 03008KT CAVOK 19/15 Q1014 RMK RWY22 06005KT
Conditions at: LTBU (CORLU , TR) observed 2020 UTC 18 July 2019
Temperature: 19.0°C (66°F)
Dewpoint: 15.0°C (59°F) [RH = 78%]
Pressure (altimeter): 29.94 inches Hg (1014.0 mb)
Winds: from the NNE (30 degrees) at 9 MPH (8 knots; 4.1 m/s)
Visibility: 6 or more miles (10+ km)
Ceiling: ceiling and visibility are OK
Clouds: unknown
Weather: no significant weather observed at this time

METAR text: LTBU 181950Z 03008KT CAVOK 19/15 Q1014 RMK RWY22 05005KT
Conditions at: LTBU (CORLU , TR) observed 1950 UTC 18 July 2019
Temperature: 19.0°C (66°F)
Dewpoint: 15.0°C (59°F) [RH = 78%]
Pressure (altimeter): 29.94 inches Hg (1014.0 mb)
Winds: from the NNE (30 degrees) at 9 MPH (8 knots; 4.1 m/s)
Visibility: 6 or more miles (10+ km)
Ceiling: ceiling and visibility are OK
Clouds: unknown
Weather: no significant weather observed at this time

Forecast for: LTBU (CORLU , TR)
Text: TAF LTBU 181640Z 1818/1918 03012KT CAVOK
Forecast period: 1800 to 1900 UTC 18 July 2019
Forecast type: FROM: standard forecast or significant change
Winds: from the NNE (30 degrees) at 14 MPH (12 knots; 6.2 m/s)
Visibility: 6 or more miles 10+ km)
Ceiling: unknown
Clouds: missing
Weather: NSW  (no significant weather)
Text: BECMG 1819/1821 VRB02KT
Forecast period: 1900 UTC 18 July 2019 to 0400 UTC 19 July 2019
Forecast type: BECOMING: Conditions expected to become as follows by 2100 UTC 18 July 2019
Winds: variable direction winds at 2 MPH (2 knots; 1.0 m/s)
Visibility: 6 or more miles 10+ km)
Ceiling: unknown
Clouds: missing
Weather: NSW  (no significant weather)
Text: BECMG 1904/1907 04015KT FEW028
Forecast period: 0400 to 1800 UTC 19 July 2019
Forecast type: BECOMING: Conditions expected to become as follows by 0700 UTC 19 July 2019
Winds: from the NE (40 degrees) at 17 MPH (15 knots; 7.7 m/s)
Visibility: 6 or more miles 10+ km)
Ceiling: at least 12,000 feet AGL
Clouds: few clouds at 2800 feet AGL
Weather: NSW  (no significant weather)